Time;durP1;ratioP1;P1;durP2;ratioP2;P2;SDS_P1;SDS_P2;PMS_P1;PMS_P2;Temp;Humidity;BMP_temperature;BMP_pressure;BME280_temperature;BME280_humidity;BME280_pressure;Samples;Min_cycle;Max_cycle;Signal;HPM_P1;HPM_P2
2022/03/20 00:00:53;;;;;;;19.12;10.63;;;;;;;1.64;40.13;102835.97;5568408;32;34237;-64
2022/03/20 00:03:57;;;;;;;22.52;10.68;;;;;;;1.52;40.79;102837.19;5568882;32;34609;-64
2022/03/20 00:06:59;;;;;;;21.30;10.68;;;;;;;1.66;39.73;102831.50;5568275;32;34683;-64
2022/03/20 00:10:04;;;;;;;17.83;9.88;;;;;;;1.61;39.77;102831.66;5554611;32;34735;-64
2022/03/20 00:13:09;;;;;;;20.52;10.38;;;;;;;1.75;39.48;102837.28;5569209;31;34002;-64
2022/03/20 00:16:12;;;;;;;22.17;11.02;;;;;;;1.67;39.51;102841.06;5571341;32;34509;-64
2022/03/20 00:19:14;;;;;;;20.85;10.88;;;;;;;1.70;39.51;102839.19;5571071;32;34238;-64
2022/03/20 00:22:17;;;;;;;22.85;10.18;;;;;;;1.61;39.67;102847.34;5571016;32;34559;-64
2022/03/20 00:25:20;;;;;;;21.73;10.73;;;;;;;1.57;40.04;102835.28;5571205;32;34568;-64
2022/03/20 00:28:25;;;;;;;21.33;11.00;;;;;;;1.50;39.78;102838.16;5570737;32;34032;-64
2022/03/20 00:31:32;;;;;;;18.58;10.00;;;;;;;1.33;40.83;102851.78;5571297;32;34565;-64
2022/03/20 00:34:36;;;;;;;18.77;10.30;;;;;;;1.39;40.70;102846.34;5570924;32;34607;-65
2022/03/20 00:37:38;;;;;;;20.42;10.65;;;;;;;1.40;40.50;102845.47;5570955;32;33989;-64
2022/03/20 00:40:43;;;;;;;20.92;11.00;;;;;;;1.28;40.97;102843.22;5570847;32;34732;-64
2022/03/20 00:43:46;;;;;;;19.62;10.68;;;;;;;1.34;41.28;102845.66;5570885;32;33915;-64
2022/03/20 00:46:49;;;;;;;20.67;10.75;;;;;;;1.19;41.83;102846.97;5570842;32;33972;-64
2022/03/20 00:49:51;;;;;;;18.02;9.93;;;;;;;1.21;41.22;102839.91;5570830;32;34541;-64
2022/03/20 00:52:55;;;;;;;22.98;10.63;;;;;;;1.16;41.60;102841.81;5570820;32;33844;-64
2022/03/20 00:55:57;;;;;;;21.80;10.82;;;;;;;1.18;42.43;102849.63;5570622;32;34887;-64
2022/03/20 00:59:00;;;;;;;20.37;10.63;;;;;;;1.02;43.06;102849.22;5570793;32;34528;-64
2022/03/20 01:02:04;;;;;;;21.90;11.38;;;;;;;1.01;43.80;102844.94;5570655;32;33977;-65
2022/03/20 01:05:09;;;;;;;19.45;10.73;;;;;;;1.04;44.09;102849.19;5557111;32;34107;-64
2022/03/20 01:08:12;;;;;;;21.25;10.80;;;;;;;1.21;43.81;102844.31;5570679;32;33892;-64
2022/03/20 01:11:15;;;;;;;21.42;10.57;;;;;;;0.94;44.23;102845.16;5570674;32;33881;-63
2022/03/20 01:14:18;;;;;;;20.52;10.75;;;;;;;0.73;44.59;102844.88;5570662;32;34569;-64
2022/03/20 01:17:23;;;;;;;19.35;10.02;;;;;;;0.97;43.42;102840.69;5570689;32;34395;-64
2022/03/20 01:20:26;;;;;;;20.17;9.98;;;;;;;1.04;42.88;102833.50;5570577;32;35257;-65
2022/03/20 01:23:29;;;;;;;18.35;9.68;;;;;;;0.92;42.92;102844.34;5570513;32;34057;-64
2022/03/20 01:26:31;;;;;;;19.17;10.05;;;;;;;0.88;42.41;102844.44;5569443;32;34899;-65
2022/03/20 01:29:35;;;;;;;18.05;9.85;;;;;;;0.81;43.05;102848.16;5556835;32;34710;-64
2022/03/20 01:32:37;;;;;;;19.60;9.60;;;;;;;0.72;42.97;102852.78;5570593;32;34432;-64
2022/03/20 01:35:41;;;;;;;15.85;9.57;;;;;;;0.52;43.28;102855.09;5570390;32;33968;-64
2022/03/20 01:38:43;;;;;;;20.45;9.48;;;;;;;0.54;43.55;102859.38;5570446;32;34017;-64
2022/03/20 01:41:47;;;;;;;19.60;9.50;;;;;;;0.61;43.23;102863.53;5570449;32;34609;-64
2022/03/20 01:44:49;;;;;;;19.85;10.25;;;;;;;0.37;43.87;102866.81;5570354;32;34606;-64
2022/03/20 01:47:54;;;;;;;17.05;9.15;;;;;;;0.41;43.42;102873.66;5570271;32;34695;-64
2022/03/20 01:50:56;;;;;;;21.58;9.35;;;;;;;0.30;43.58;102879.19;5570334;32;35227;-64
2022/03/20 01:53:59;;;;;;;17.95;9.32;;;;;;;0.24;43.98;102879.34;5570312;32;35243;-64
2022/03/20 01:57:02;;;;;;;17.25;8.93;;;;;;;0.19;43.78;102883.00;5556472;32;35457;-64
2022/03/20 02:00:07;;;;;;;20.20;9.68;;;;;;;0.11;44.02;102880.56;5570233;32;34302;-64
2022/03/20 02:03:13;;;;;;;18.70;9.13;;;;;;;0.14;44.46;102885.72;5570147;32;34012;-64
2022/03/20 02:06:18;;;;;;;22.27;9.43;;;;;;;-0.05;44.33;102874.88;5570555;32;34630;-64
2022/03/20 02:09:21;;;;;;;17.62;8.75;;;;;;;-0.15;44.65;102883.84;5570076;32;34125;-64
2022/03/20 02:12:24;;;;;;;16.00;8.98;;;;;;;-0.14;45.17;102884.69;5570098;32;34004;-64
2022/03/20 02:15:27;;;;;;;19.12;8.80;;;;;;;-0.03;45.14;102880.91;5570377;32;33926;-64
2022/03/20 02:18:31;;;;;;;17.58;8.57;;;;;;;-0.06;45.03;102880.16;5570085;32;33952;-64
2022/03/20 02:21:44;;;;;;;17.87;8.45;;;;;;;-0.17;45.98;102879.56;5570136;32;35148;-64
2022/03/20 02:24:51;;;;;;;16.23;8.40;;;;;;;0.13;44.90;102881.41;5569940;32;34753;-64
2022/03/20 02:27:53;;;;;;;14.75;8.93;;;;;;;-0.03;45.09;102870.47;5570009;32;34114;-64
2022/03/20 02:30:56;;;;;;;13.75;8.35;;;;;;;-0.10;45.72;102870.69;5569956;32;34026;-64
2022/03/20 02:33:59;;;;;;;17.73;9.13;;;;;;;0.04;45.49;102881.63;5556288;32;34542;-64
2022/03/20 02:37:03;;;;;;;19.65;9.25;;;;;;;-0.13;45.92;102883.78;5569591;32;34537;-64
2022/03/20 02:40:06;;;;;;;17.83;10.30;;;;;;;-0.06;46.25;102886.22;5570338;32;34123;-64
2022/03/20 02:43:10;;;;;;;16.50;8.38;;;;;;;-0.15;46.31;102883.84;5569849;32;34597;-64
2022/03/20 02:46:12;;;;;;;16.02;8.95;;;;;;;-0.24;46.64;102891.88;5569768;32;33925;-64
2022/03/20 02:49:17;;;;;;;19.85;8.82;;;;;;;-0.22;46.82;102894.47;5569728;32;35210;-64
2022/03/20 02:52:24;;;;;;;17.85;9.07;;;;;;;-0.29;46.95;102895.53;5569771;32;34020;-64
2022/03/20 02:55:27;;;;;;;16.17;8.98;;;;;;;-0.43;47.11;102899.28;5569731;32;34102;-64
2022/03/20 02:58:30;;;;;;;16.27;9.10;;;;;;;-0.41;47.53;102904.47;5569465;32;35431;-64
2022/03/20 03:01:33;;;;;;;20.90;9.25;;;;;;;-0.39;47.60;102901.84;5569662;32;34606;-64
2022/03/20 03:04:37;;;;;;;18.55;8.95;;;;;;;-0.51;47.90;102903.84;5569530;32;34687;-64
2022/03/20 03:11:02;;;;;;;15.80;8.95;;;;;;;-0.37;47.80;102919.16;5569762;32;34656;-64
2022/03/20 03:15:19;;;;;;;19.80;9.88;;;;;;;-0.54;47.89;102919.56;5569403;32;35210;-64
2022/03/20 03:17:28;;;;;;;16.05;9.63;;;;;;;-0.56;48.53;102920.47;5569158;32;34378;-64
2022/03/20 03:20:32;;;;;;;15.48;9.48;;;;;;;-0.66;48.89;102927.66;5569305;32;34362;-64
2022/03/20 03:23:36;;;;;;;18.67;10.00;;;;;;;-0.64;48.96;102930.22;5569171;32;34425;-64
2022/03/20 03:26:39;;;;;;;19.33;10.10;;;;;;;-0.71;49.24;102933.84;5569083;32;34144;-64
2022/03/20 03:29:42;;;;;;;17.67;9.77;;;;;;;-0.63;49.06;102932.78;5569195;32;34408;-64
2022/03/20 03:32:46;;;;;;;18.83;10.15;;;;;;;-0.68;49.27;102933.81;5569027;32;34660;-64
2022/03/20 03:35:54;;;;;;;20.60;10.23;;;;;;;-0.52;48.75;102942.97;5568978;32;33912;-64
2022/03/20 03:38:57;;;;;;;18.10;9.48;;;;;;;-0.58;49.35;102948.34;5569131;32;34106;-64
2022/03/20 03:42:00;;;;;;;17.62;9.55;;;;;;;-0.56;49.19;102954.38;5569286;32;33952;-64
2022/03/20 03:45:04;;;;;;;19.60;10.52;;;;;;;-0.66;49.68;102945.91;5568879;32;34112;-64
2022/03/20 03:48:08;;;;;;;17.90;9.70;;;;;;;-0.82;50.16;102959.31;5569501;32;34520;-64
2022/03/20 03:51:11;;;;;;;17.80;9.80;;;;;;;-0.73;50.06;102961.72;5571288;32;33954;-64
2022/03/20 03:54:13;;;;;;;18.42;10.23;;;;;;;-0.94;50.25;102960.41;5571386;32;34026;-64
2022/03/20 03:57:20;;;;;;;19.05;10.90;;;;;;;-1.05;51.15;102959.75;5557703;32;34329;-64
2022/03/20 04:00:24;;;;;;;17.90;10.00;;;;;;;-1.06;51.54;102963.25;5571214;32;34743;-64
2022/03/20 04:03:27;;;;;;;19.35;10.50;;;;;;;-1.17;51.80;102966.09;5571278;32;35248;-64
2022/03/20 04:06:30;;;;;;;18.00;10.10;;;;;;;-1.20;51.86;102965.25;5571510;32;34561;-64
2022/03/20 04:09:34;;;;;;;21.27;10.35;;;;;;;-1.18;52.06;102973.91;5571419;32;33955;-64
2022/03/20 04:12:43;;;;;;;20.27;9.75;;;;;;;-1.30;52.09;102977.59;5571109;32;33928;-64
2022/03/20 04:15:46;;;;;;;26.35;10.32;;;;;;;-1.47;52.89;102983.13;5571006;32;33997;-64
2022/03/20 04:18:48;;;;;;;20.60;10.20;;;;;;;-1.57;53.26;102986.78;5571074;32;34674;-64
2022/03/20 04:21:51;;;;;;;19.60;10.35;;;;;;;-1.67;53.63;102984.34;5571229;32;35222;-64
2022/03/20 04:24:55;;;;;;;18.85;10.32;;;;;;;-1.75;54.13;102987.09;5570984;32;34494;-64
2022/03/20 04:27:59;;;;;;;20.62;11.35;;;;;;;-1.80;54.43;102984.56;5571094;32;33894;-64
2022/03/20 04:31:01;;;;;;;19.35;10.23;;;;;;;-1.70;55.16;102995.69;5571209;32;34252;-64
2022/03/20 04:34:04;;;;;;;20.95;10.95;;;;;;;-1.77;55.04;103007.94;5571089;32;33886;-64
2022/03/20 04:37:09;;;;;;;20.05;11.32;;;;;;;-1.81;55.14;102995.00;5557591;32;34297;-64
2022/03/20 04:40:12;;;;;;;22.42;11.15;;;;;;;-1.85;56.33;103006.34;5570911;32;33944;-64
2022/03/20 04:43:17;;;;;;;20.05;11.12;;;;;;;-1.94;56.82;103002.16;5571030;32;34505;-64
2022/03/20 04:46:20;;;;;;;21.35;11.90;;;;;;;-1.97;56.56;103003.91;5570883;32;35269;-64
2022/03/20 04:59:28;;;;;;;23.67;13.27;;;;;;;-1.80;56.64;103030.56;5570696;32;34645;-64
2022/03/20 05:02:34;;;;;;;22.20;12.52;;;;;;;-1.88;57.04;103037.59;5571071;32;34291;-64
2022/03/20 05:05:38;;;;;;;22.13;12.63;;;;;;;-1.86;57.15;103038.44;5570694;32;35304;-64
2022/03/20 05:08:41;;;;;;;20.25;12.13;;;;;;;-1.82;57.31;103037.50;5557139;32;35457;-64
2022/03/20 05:15:05;;;;;;;23.15;12.43;;;;;;;-1.75;57.23;103041.75;5570559;32;33993;-64
2022/03/20 05:18:08;;;;;;;21.85;12.52;;;;;;;-1.43;56.73;103059.44;5570866;32;34588;-64
2022/03/20 05:21:10;;;;;;;22.30;11.02;;;;;;;-1.50;56.56;103063.87;5570562;32;34054;-64
2022/03/20 05:24:14;;;;;;;24.05;11.80;;;;;;;-1.53;56.79;103050.91;5556877;32;34082;-64
2022/03/20 05:27:17;;;;;;;23.60;12.18;;;;;;;-1.56;56.76;103045.78;5570469;32;35146;-64
2022/03/20 05:30:20;;;;;;;20.48;12.05;;;;;;;-1.40;56.92;103049.81;5570606;32;34043;-64
2022/03/20 05:33:23;;;;;;;21.83;11.65;;;;;;;-1.03;55.66;103054.38;5570381;32;34216;-64
2022/03/20 05:36:29;;;;;;;21.60;11.93;;;;;;;-1.07;55.93;103058.78;5570506;32;34676;-64
2022/03/20 05:39:33;;;;;;;20.55;11.60;;;;;;;-1.01;56.07;103066.47;5570385;32;34075;-64
2022/03/20 05:42:38;;;;;;;21.33;11.45;;;;;;;-0.90;55.68;103076.72;5570207;32;34802;-64
2022/03/20 05:45:43;;;;;;;22.33;11.88;;;;;;;-0.87;55.46;103074.03;5570317;32;33895;-64
2022/03/20 05:48:46;;;;;;;20.90;11.57;;;;;;;-0.83;55.52;103078.31;5570505;32;34012;-64
2022/03/20 05:51:50;;;;;;;23.23;12.65;;;;;;;-0.69;55.60;103078.06;5570319;32;33930;-64
2022/03/20 05:54:52;;;;;;;22.48;12.23;;;;;;;-0.44;54.75;103082.72;5570314;32;33973;-64
2022/03/20 05:58:04;;;;;;;25.15;12.35;;;;;;;-0.23;53.75;103094.47;5570572;32;33940;-64
2022/03/20 06:01:07;;;;;;;20.23;10.90;;;;;;;-0.08;53.76;103094.13;5570232;32;34540;-64
2022/03/20 06:04:11;;;;;;;26.08;10.65;;;;;;;0.07;53.21;103098.16;5569739;32;34766;-64
2022/03/20 06:07:14;;;;;;;21.10;11.75;;;;;;;0.22;52.54;103105.66;5570221;32;34213;-64
2022/03/20 06:10:18;;;;;;;25.58;11.98;;;;;;;0.33;52.10;103102.78;5569907;32;33824;-64
2022/03/20 06:13:21;;;;;;;23.48;12.50;;;;;;;0.42;51.60;103115.63;5570253;32;34558;-64
2022/03/20 06:16:24;;;;;;;21.40;11.80;;;;;;;0.44;50.99;103111.22;5570065;32;34039;-64
2022/03/20 06:19:27;;;;;;;22.62;11.60;;;;;;;0.39;51.47;103115.69;5556397;32;34653;-64
2022/03/20 06:22:30;;;;;;;23.45;11.73;;;;;;;0.65;50.90;103118.53;5570326;32;34315;-64
2022/03/20 06:25:33;;;;;;;24.02;11.73;;;;;;;1.01;50.31;103126.38;5570165;32;34651;-64
2022/03/20 06:28:40;;;;;;;23.40;11.25;;;;;;;1.44;49.05;103136.53;5569562;32;34057;-65
2022/03/20 06:31:42;;;;;;;22.30;11.35;;;;;;;1.97;48.01;103135.88;5569927;32;34123;-64
2022/03/20 06:34:45;;;;;;;21.98;11.75;;;;;;;1.94;47.06;103148.16;5569781;32;34308;-64
2022/03/20 06:37:53;;;;;;;23.85;11.70;;;;;;;1.87;47.51;103151.87;5569954;32;34605;-64
2022/03/20 06:40:57;;;;;;;19.80;10.82;;;;;;;2.31;46.55;103151.44;5570081;32;34075;-64
2022/03/20 06:44:01;;;;;;;18.02;10.65;;;;;;;2.22;47.01;103150.84;5569513;32;35145;-65
2022/03/20 06:47:04;;;;;;;24.48;11.77;;;;;;;2.71;45.32;103152.78;5569785;32;34390;-64
2022/03/20 06:50:08;;;;;;;20.17;11.02;;;;;;;2.38;45.64;103160.78;5569679;32;35347;-65
2022/03/20 06:53:13;;;;;;;21.73;11.25;;;;;;;2.58;45.94;103160.16;5569699;32;34018;-65
2022/03/20 06:56:15;;;;;;;20.62;11.10;;;;;;;2.64;45.55;103154.75;5556020;32;34664;-64
2022/03/20 06:59:19;;;;;;;22.13;11.27;;;;;;;2.93;44.67;103164.28;5569585;32;34648;-64
2022/03/20 07:02:23;;;;;;;26.77;11.40;;;;;;;3.29;43.75;103168.25;5555923;32;33982;-64
2022/03/20 07:05:28;;;;;;;19.55;10.38;;;;;;;4.01;42.37;103166.56;5569475;32;34607;-64
2022/03/20 07:08:30;;;;;;;18.55;10.48;;;;;;;4.04;41.61;103162.94;5569517;32;34058;-64
2022/03/20 07:11:33;;;;;;;18.92;10.20;;;;;;;4.55;40.47;103166.16;5569420;32;34572;-65
2022/03/20 07:14:37;;;;;;;22.20;10.18;;;;;;;4.33;40.29;103158.28;5569238;32;34042;-64
2022/03/20 07:17:40;;;;;;;17.58;10.38;;;;;;;4.66;40.28;103173.62;5569174;32;34810;-64
2022/03/20 07:20:45;;;;;;;18.52;10.57;;;;;;;5.37;39.16;103178.53;5569009;32;34020;-63
2022/03/20 07:23:47;;;;;;;16.10;9.40;;;;;;;5.01;38.43;103178.31;5556745;32;34611;-64
2022/03/20 07:30:13;;;;;;;17.48;9.93;;;;;;;6.07;37.50;103178.91;5571304;32;34031;-65
2022/03/20 07:33:15;;;;;;;17.85;9.32;;;;;;;6.51;35.21;103182.09;5571380;32;34022;-65
2022/03/20 07:36:28;;;;;;;16.15;9.00;;;;;;;4.73;38.41;103177.72;5571350;32;34121;-65
2022/03/20 07:39:32;;;;;;;18.02;9.05;;;;;;;6.95;34.46;103179.94;5571331;32;33989;-66
2022/03/20 07:42:35;;;;;;;15.98;9.65;;;;;;;8.42;32.32;103171.28;5571431;32;35354;-64
2022/03/20 07:45:38;;;;;;;17.23;9.63;;;;;;;8.46;31.56;103174.59;5571269;32;34030;-63
2022/03/20 07:48:41;;;;;;;14.13;9.30;;;;;;;9.38;30.71;103170.97;5571016;32;34546;-64
2022/03/20 07:51:43;;;;;;;13.10;8.77;;;;;;;9.31;30.73;103173.13;5571040;32;34659;-64
2022/03/20 07:54:46;;;;;;;16.08;9.25;;;;;;;9.85;29.39;103174.22;5571133;32;34203;-63
2022/03/20 07:57:49;;;;;;;15.82;8.90;;;;;;;9.24;29.65;103170.94;5571180;32;33971;-64
2022/03/20 08:00:52;;;;;;;16.80;10.00;;;;;;;7.62;32.24;103173.84;5570951;32;35218;-63
2022/03/20 08:03:56;;;;;;;20.95;10.80;;;;;;;7.05;34.52;103177.69;5571067;32;34798;-65
2022/03/20 08:06:59;;;;;;;20.37;10.85;;;;;;;6.87;35.66;103175.97;5571031;32;34132;-64
2022/03/20 08:10:07;;;;;;;13.60;8.20;;;;;;;8.02;33.84;103172.59;5571082;32;33932;-64
2022/03/20 08:13:11;;;;;;;17.42;9.10;;;;;;;8.01;31.35;103170.88;5557462;32;34063;-64
2022/03/20 08:16:19;;;;;;;13.02;7.65;;;;;;;6.86;33.55;103167.22;5571029;32;33914;-64
2022/03/20 08:19:23;;;;;;;13.50;7.45;;;;;;;6.73;32.69;103171.34;5571401;32;34665;-63
2022/03/20 08:22:26;;;;;;;17.42;7.95;;;;;;;6.67;32.74;103163.75;5571069;32;34637;-64
2022/03/20 08:25:29;;;;;;;11.23;6.87;;;;;;;7.05;31.86;103163.66;5570352;32;34034;-64
2022/03/20 08:28:31;;;;;;;13.00;7.62;;;;;;;7.73;31.16;103160.94;5556703;32;34206;-64
2022/03/20 08:31:34;;;;;;;16.27;7.57;;;;;;;8.25;30.37;103166.88;5570638;32;34620;-64
2022/03/20 08:34:38;;;;;;;13.18;7.30;;;;;;;8.58;30.02;103171.25;5570377;32;34071;-64
2022/03/20 08:37:43;;;;;;;13.82;7.87;;;;;;;9.73;28.75;103167.00;5570791;32;34084;-63
2022/03/20 08:40:46;;;;;;;13.02;7.55;;;;;;;9.80;28.60;103160.38;5570724;32;35176;-64
2022/03/20 08:43:48;;;;;;;13.35;7.53;;;;;;;8.22;30.42;103160.91;5570734;32;34000;-63
2022/03/20 08:46:54;;;;;;;17.50;7.05;;;;;;;8.70;30.70;103165.28;5570914;32;34105;-64
2022/03/20 08:49:57;;;;;;;10.85;7.18;;;;;;;8.99;29.65;103163.59;5570277;32;35248;-64
2022/03/20 08:53:01;;;;;;;11.85;7.03;;;;;;;10.61;27.39;103161.41;5570967;32;34315;-64
2022/03/20 08:56:04;;;;;;;11.02;6.80;;;;;;;9.93;27.62;103153.38;5570664;32;34683;-65
2022/03/20 08:59:08;;;;;;;10.25;6.47;;;;;;;10.85;26.46;103159.78;5570564;32;33946;-64
2022/03/20 09:02:10;;;;;;;13.52;6.05;;;;;;;9.45;27.70;103151.09;5570354;32;34145;-63
2022/03/20 09:05:14;;;;;;;9.93;6.00;;;;;;;8.73;28.09;103154.50;5570453;32;35043;-64
2022/03/20 09:08:17;;;;;;;8.55;5.90;;;;;;;8.35;29.08;103151.38;5570447;32;34152;-63
2022/03/20 09:11:21;;;;;;;11.07;6.72;;;;;;;8.09;29.42;103144.84;5570482;32;34061;-64
2022/03/20 09:14:24;;;;;;;10.43;5.93;;;;;;;7.64;30.38;103152.66;5570536;32;34329;-64
2022/03/20 09:20:48;;;;;;;11.90;6.10;;;;;;;7.14;31.10;103140.28;5570340;32;35153;-65
2022/03/20 09:23:51;;;;;;;11.70;6.47;;;;;;;7.15;30.92;103127.94;5570103;32;34693;-65
2022/03/20 09:26:56;;;;;;;11.48;5.90;;;;;;;6.68;31.81;103132.97;5569985;32;33909;-66
2022/03/20 09:29:59;;;;;;;11.63;6.47;;;;;;;6.82;32.11;103131.34;5569952;32;34011;-65
2022/03/20 09:33:02;;;;;;;11.80;6.70;;;;;;;6.79;31.87;103126.22;5570548;32;34022;-65
2022/03/20 09:36:06;;;;;;;12.70;6.47;;;;;;;7.18;31.04;103125.97;5570261;32;34414;-65
2022/03/20 09:39:10;;;;;;;13.05;6.32;;;;;;;6.89;32.15;103127.47;5570111;32;34060;-65
2022/03/20 09:42:18;;;;;;;10.50;6.43;;;;;;;7.15;31.30;103133.22;5569840;32;34695;-65
2022/03/20 09:45:21;;;;;;;11.12;6.28;;;;;;;6.73;31.95;103136.22;5569689;32;33905;-65
2022/03/20 09:48:27;;;;;;;14.23;6.20;;;;;;;7.06;31.31;103141.59;5570073;32;34055;-65
2022/03/20 09:51:30;;;;;;;14.25;6.68;;;;;;;6.98;31.83;103140.19;5569879;32;34685;-65
2022/03/20 09:54:33;;;;;;;8.85;5.85;;;;;;;7.57;31.16;103138.03;5569849;32;35310;-65
2022/03/20 09:57:36;;;;;;;12.37;6.40;;;;;;;7.46;30.49;103135.94;5569882;32;34370;-65
2022/03/20 10:00:40;;;;;;;11.48;6.47;;;;;;;7.27;31.39;103135.19;5569842;32;33881;-65
2022/03/20 10:03:43;;;;;;;10.75;6.90;;;;;;;7.56;31.24;103138.97;5569588;32;34048;-63
2022/03/20 10:06:46;;;;;;;12.63;6.20;;;;;;;7.42;31.02;103129.13;5569878;32;33920;-64
2022/03/20 10:10:18;;;;;;;12.52;7.00;;;;;;;7.95;30.38;103125.41;5570158;32;35377;-64
2022/03/20 10:13:20;;;;;;;10.95;6.40;;;;;;;8.25;29.74;103127.22;5556136;32;34046;-64
2022/03/20 10:16:23;;;;;;;14.40;6.62;;;;;;;8.73;29.72;103115.66;5569742;32;33979;-64
2022/03/20 10:19:28;;;;;;;11.65;6.57;;;;;;;8.78;29.31;103117.19;5569912;32;34640;-63
2022/03/20 10:22:32;;;;;;;9.43;6.10;;;;;;;8.97;28.82;103116.00;5569679;32;33947;-65
2022/03/20 10:25:35;;;;;;;11.98;6.15;;;;;;;9.14;28.95;103115.88;5569478;32;33921;-65
2022/03/20 10:28:44;;;;;;;10.80;6.70;;;;;;;8.79;28.82;103110.94;5561956;32;246494;-65
2022/03/20 10:31:49;;;;;;;12.65;6.05;;;;;;;8.75;29.21;103115.56;5569070;32;34127;-64
2022/03/20 10:34:57;;;;;;;10.80;6.45;;;;;;;8.47;29.32;103110.16;5569541;32;33948;-65
2022/03/20 10:38:00;;;;;;;12.02;6.43;;;;;;;8.22;29.27;103094.81;5569143;32;34737;-64
2022/03/20 10:41:26;;;;;;;10.23;6.07;;;;;;;7.71;30.25;103099.38;5569538;32;34402;-65
2022/03/20 10:44:31;;;;;;;10.82;6.32;;;;;;;8.23;29.93;103099.12;5569659;32;34039;-64
2022/03/20 10:47:37;;;;;;;11.40;5.85;;;;;;;7.82;30.41;103083.78;5555778;32;34666;-64
2022/03/20 10:50:47;;;;;;;11.75;6.70;;;;;;;8.31;29.46;103082.88;5569107;32;35221;-63
2022/03/20 10:54:01;;;;;;;9.98;6.40;;;;;;;8.32;29.71;103084.59;5569293;32;34097;-64
2022/03/20 10:57:05;;;;;;;9.73;6.20;;;;;;;8.29;30.12;103093.50;5555426;32;34633;-64
2022/03/20 11:00:11;;;;;;;10.43;5.93;;;;;;;8.61;28.77;103081.13;5556024;32;34085;-64
2022/03/20 11:03:21;;;;;;;11.65;6.43;;;;;;;8.79;29.23;103081.84;5555926;32;34334;-64
2022/03/20 11:06:25;;;;;;;10.23;6.12;;;;;;;9.79;27.12;103075.62;5569432;32;34057;-64
2022/03/20 11:09:28;;;;;;;9.95;6.00;;;;;;;12.17;24.98;103078.72;5569517;32;34077;-64
2022/03/20 11:12:35;;;;;;;11.00;6.05;;;;;;;13.39;22.96;103062.28;5569308;32;34808;-64
2022/03/20 11:15:38;;;;;;;12.20;6.20;;;;;;;12.22;23.34;103061.56;5568939;32;34099;-64
2022/03/20 11:18:43;;;;;;;10.63;5.93;;;;;;;11.27;24.49;103051.56;5555664;32;35097;-64
2022/03/20 11:21:49;;;;;;;9.43;6.12;;;;;;;13.88;21.18;103055.72;5569112;32;34149;-65
2022/03/20 11:24:55;;;;;;;13.88;6.18;;;;;;;14.87;20.63;103048.28;5568950;32;34053;-65
2022/03/20 11:28:03;;;;;;;13.20;5.93;;;;;;;13.77;21.74;103050.37;5554897;31;34629;-65
2022/03/20 11:31:07;;;;;;;12.70;6.28;;;;;;;13.52;21.88;103042.63;5569164;32;33900;-65
2022/03/20 11:34:12;;;;;;;8.43;6.07;;;;;;;16.23;19.03;103034.44;5568769;32;34074;-65
2022/03/20 11:37:16;;;;;;;8.57;5.32;;;;;;;18.43;17.86;103021.16;5568845;32;33946;-65
2022/03/20 11:40:22;;;;;;;7.32;5.22;;;;;;;18.12;16.96;103012.63;5555220;32;33960;-65
2022/03/20 11:43:25;;;;;;;7.60;5.37;;;;;;;16.38;18.11;103008.91;5555373;32;34881;-66
2022/03/20 11:46:28;;;;;;;8.13;5.20;;;;;;;16.47;18.41;103010.72;5568715;32;34001;-66
2022/03/20 11:49:31;;;;;;;8.35;5.55;;;;;;;15.90;18.58;103004.38;5568872;32;35277;-65
2022/03/20 11:53:04;;;;;;;7.28;4.95;;;;;;;16.00;18.38;103004.41;5568285;32;34027;-65
2022/03/20 11:56:08;;;;;;;7.65;5.43;;;;;;;14.95;19.32;102995.03;5567528;32;33991;-65
2022/03/20 11:59:45;;;;;;;9.30;4.93;;;;;;;15.22;19.54;102989.09;5568274;32;34901;-65
2022/03/20 12:03:12;;;;;;;9.55;5.12;;;;;;;14.02;20.21;102998.53;5568350;32;34039;-65
2022/03/20 12:06:33;;;;;;;8.60;5.72;;;;;;;12.42;21.60;102989.06;5568203;32;34028;-65
2022/03/20 12:09:57;;;;;;;9.15;5.18;;;;;;;13.55;21.27;102984.59;5555742;32;35288;-65
2022/03/20 12:13:06;;;;;;;9.13;5.18;;;;;;;14.25;20.53;102981.44;5570080;32;34034;-65
2022/03/20 12:16:09;;;;;;;8.02;5.07;;;;;;;13.79;20.71;102979.94;5570748;32;34212;-65
2022/03/20 12:19:14;;;;;;;7.32;5.12;;;;;;;12.94;21.38;102981.41;5571181;32;33913;-65
2022/03/20 12:22:20;;;;;;;6.30;4.95;;;;;;;13.26;20.90;102981.59;5571009;32;35081;-65
2022/03/20 12:25:42;;;;;;;7.65;4.72;;;;;;;13.67;20.64;102980.06;5571257;32;34533;-65
2022/03/20 12:28:45;;;;;;;8.35;4.87;;;;;;;14.42;19.69;102983.59;5571073;31;34652;-65
2022/03/20 12:31:56;;;;;;;8.70;4.78;;;;;;;13.56;20.28;102970.25;5571103;32;34010;-64
2022/03/20 12:35:02;;;;;;;10.38;4.95;;;;;;;13.55;19.56;102965.91;5570856;32;34041;-65
2022/03/20 12:38:06;;;;;;;7.45;4.60;;;;;;;12.23;21.33;102970.97;5570832;32;34585;-65
2022/03/20 12:41:13;;;;;;;8.90;4.95;;;;;;;13.21;20.48;102962.44;5570852;32;34671;-65
2022/03/20 12:44:17;;;;;;;8.55;5.35;;;;;;;13.31;20.23;102965.22;5570773;32;34041;-65
2022/03/20 12:47:23;;;;;;;8.18;4.90;;;;;;;13.55;20.70;102960.59;5556810;32;34163;-64
2022/03/20 12:50:32;;;;;;;9.30;5.53;;;;;;;13.57;20.58;102957.78;5570825;32;33971;-64
2022/03/20 12:53:43;;;;;;;10.35;5.70;;;;;;;13.85;20.85;102949.19;5570673;32;34725;-65
2022/03/20 12:56:55;;;;;;;8.82;5.57;;;;;;;15.07;20.04;102947.66;5570729;32;34594;-64
2022/03/20 13:00:26;;;;;;;11.18;5.95;;;;;;;14.29;20.35;102951.69;5570554;32;33869;-65
2022/03/20 13:03:30;;;;;;;12.40;6.03;;;;;;;13.91;20.84;102951.38;5568244;32;35183;-64
2022/03/20 13:06:34;;;;;;;8.63;5.53;;;;;;;13.39;21.24;102939.63;5570918;32;33965;-65
2022/03/20 13:09:39;;;;;;;11.77;5.55;;;;;;;14.74;19.96;102936.25;5570505;32;34003;-65
2022/03/20 13:12:58;;;;;;;9.20;5.43;;;;;;;16.71;17.83;102930.75;5570544;32;34621;-65
2022/03/20 13:16:03;;;;;;;7.20;5.07;;;;;;;15.77;18.54;102928.88;5570877;32;33979;-65
2022/03/20 13:19:07;;;;;;;8.02;4.78;;;;;;;15.77;18.54;102928.00;5570547;32;34128;-66
2022/03/20 13:22:12;;;;;;;6.43;4.60;;;;;;;19.53;14.80;102920.75;5569335;32;34271;-65
2022/03/20 13:25:17;;;;;;;8.15;4.85;;;;;;;19.29;14.83;102915.28;5570154;32;33988;-66
2022/03/20 13:28:25;;;;;;;10.18;5.07;;;;;;;20.46;13.91;102921.31;5570054;32;33421;-66
2022/03/20 13:31:28;;;;;;;8.45;4.75;;;;;;;19.81;14.08;102918.59;5570016;32;33904;-67
2022/03/20 13:34:33;;;;;;;7.32;4.45;;;;;;;18.28;15.16;102907.97;5570043;32;34092;-66
2022/03/20 13:37:37;;;;;;;8.20;4.90;;;;;;;21.33;13.76;102917.66;5570266;32;34023;-66
2022/03/20 13:40:40;;;;;;;7.43;4.55;;;;;;;19.76;14.26;102906.62;5570443;32;35277;-66
2022/03/20 13:43:44;;;;;;;8.40;4.78;;;;;;;19.33;14.21;102905.00;5570085;32;33946;-66
2022/03/20 13:46:47;;;;;;;7.90;4.53;;;;;;;19.72;14.47;102895.38;5556562;32;34572;-66
2022/03/20 13:49:54;;;;;;;8.55;5.43;;;;;;;17.32;15.30;102898.84;5556286;32;34082;-67
2022/03/20 13:52:57;;;;;;;6.85;4.00;;;;;;;17.65;15.75;102893.84;5570088;32;34587;-66
2022/03/20 13:56:00;;;;;;;6.55;4.50;;;;;;;18.97;13.93;102896.31;5556459;32;34124;-66
2022/03/20 13:59:06;;;;;;;5.50;4.30;;;;;;;19.44;13.30;102891.28;5569859;32;33952;-66
2022/03/20 14:02:09;;;;;;;6.70;4.18;;;;;;;21.10;12.62;102887.91;5570366;32;33854;-66
2022/03/20 14:05:16;;;;;;;6.35;4.18;;;;;;;22.73;11.98;102877.47;5569969;32;35284;-67
2022/03/20 14:08:21;;;;;;;7.65;4.55;;;;;;;21.38;11.85;102890.13;5570520;32;34095;-65
2022/03/20 14:11:32;;;;;;;9.13;4.55;;;;;;;19.83;13.15;102889.66;5570358;32;34670;-66
2022/03/20 14:14:46;;;;;;;7.93;4.82;;;;;;;21.04;12.54;102885.06;5556438;32;33975;-64
2022/03/20 14:17:55;;;;;;;9.80;4.97;;;;;;;20.48;13.34;102892.31;5569747;32;33925;-66
2022/03/20 14:21:20;;;;;;;9.27;5.35;;;;;;;21.51;12.80;102885.81;5570042;32;34864;-66
2022/03/20 14:24:23;;;;;;;6.70;4.50;;;;;;;22.61;12.10;102867.28;5570156;32;34722;-66
2022/03/20 14:27:27;;;;;;;7.55;4.53;;;;;;;19.83;13.67;102868.09;5569626;32;34746;-67
2022/03/20 14:40:47;;;;;;;5.65;3.90;;;;;;;14.98;16.33;102857.56;5569425;32;34645;-66
2022/03/20 14:44:14;;;;;;;6.87;3.78;;;;;;;14.81;16.37;102851.06;5556049;32;35210;-64
2022/03/20 14:47:20;;;;;;;5.95;4.00;;;;;;;15.56;15.79;102842.50;5556195;32;34148;-64